sensor_id;sensor_type;location;lat;lon;timestamp;P1;durP1;ratioP1;P2;durP2;ratioP2
43756;SDS011;45574;41.864;12.462;2022-11-15T00:02:10;25.58;;;20.45;;
43756;SDS011;45574;41.864;12.462;2022-11-15T00:05:14;28.25;;;21.92;;
43756;SDS011;45574;41.864;12.462;2022-11-15T00:08:19;27.10;;;20.75;;
43756;SDS011;45574;41.864;12.462;2022-11-15T00:11:24;26.65;;;21.08;;
43756;SDS011;45574;41.864;12.462;2022-11-15T00:14:31;25.98;;;20.77;;
43756;SDS011;45574;41.864;12.462;2022-11-15T00:17:35;27.48;;;21.27;;
43756;SDS011;45574;41.864;12.462;2022-11-15T00:20:40;27.15;;;20.95;;
43756;SDS011;45574;41.864;12.462;2022-11-15T00:23:45;27.92;;;21.52;;
43756;SDS011;45574;41.864;12.462;2022-11-15T00:26:49;30.13;;;21.23;;
43756;SDS011;45574;41.864;12.462;2022-11-15T00:29:54;26.88;;;21.48;;
43756;SDS011;45574;41.864;12.462;2022-11-15T00:33:02;30.67;;;20.73;;
43756;SDS011;45574;41.864;12.462;2022-11-15T00:36:07;31.77;;;20.65;;
43756;SDS011;45574;41.864;12.462;2022-11-15T00:39:13;28.30;;;21.48;;
43756;SDS011;45574;41.864;12.462;2022-11-15T00:42:18;27.98;;;20.98;;
43756;SDS011;45574;41.864;12.462;2022-11-15T00:45:23;26.52;;;21.50;;
43756;SDS011;45574;41.864;12.462;2022-11-15T00:48:28;26.85;;;21.48;;
43756;SDS011;45574;41.864;12.462;2022-11-15T00:51:32;26.83;;;20.77;;
43756;SDS011;45574;41.864;12.462;2022-11-15T00:54:37;26.17;;;21.35;;
43756;SDS011;45574;41.864;12.462;2022-11-15T00:57:41;25.45;;;20.73;;
43756;SDS011;45574;41.864;12.462;2022-11-15T01:01:05;31.08;;;21.65;;
43756;SDS011;45574;41.864;12.462;2022-11-15T01:04:13;25.77;;;21.35;;
43756;SDS011;45574;41.864;12.462;2022-11-15T01:07:17;26.90;;;21.08;;
43756;SDS011;45574;41.864;12.462;2022-11-15T01:10:22;28.13;;;22.10;;
43756;SDS011;45574;41.864;12.462;2022-11-15T01:13:29;25.85;;;21.15;;
43756;SDS011;45574;41.864;12.462;2022-11-15T01:16:34;30.67;;;22.80;;
43756;SDS011;45574;41.864;12.462;2022-11-15T01:19:38;28.55;;;21.00;;
43756;SDS011;45574;41.864;12.462;2022-11-15T01:22:43;26.88;;;21.23;;
43756;SDS011;45574;41.864;12.462;2022-11-15T01:25:47;28.17;;;21.23;;
43756;SDS011;45574;41.864;12.462;2022-11-15T01:28:52;29.83;;;22.48;;
43756;SDS011;45574;41.864;12.462;2022-11-15T01:31:57;28.73;;;21.92;;
43756;SDS011;45574;41.864;12.462;2022-11-15T01:35:02;26.88;;;20.88;;
43756;SDS011;45574;41.864;12.462;2022-11-15T01:38:06;30.50;;;22.00;;
43756;SDS011;45574;41.864;12.462;2022-11-15T01:41:19;28.98;;;22.45;;
43756;SDS011;45574;41.864;12.462;2022-11-15T01:47:41;26.58;;;21.95;;
43756;SDS011;45574;41.864;12.462;2022-11-15T01:50:49;28.13;;;21.02;;
43756;SDS011;45574;41.864;12.462;2022-11-15T01:53:54;30.85;;;21.17;;
43756;SDS011;45574;41.864;12.462;2022-11-15T01:57:03;29.73;;;20.42;;
43756;SDS011;45574;41.864;12.462;2022-11-15T02:00:09;27.20;;;21.35;;
43756;SDS011;45574;41.864;12.462;2022-11-15T02:03:14;24.70;;;20.05;;
43756;SDS011;45574;41.864;12.462;2022-11-15T02:06:19;26.92;;;19.58;;
43756;SDS011;45574;41.864;12.462;2022-11-15T02:09:24;29.52;;;20.15;;
43756;SDS011;45574;41.864;12.462;2022-11-15T02:12:29;24.08;;;18.55;;
43756;SDS011;45574;41.864;12.462;2022-11-15T02:15:39;21.15;;;17.83;;
43756;SDS011;45574;41.864;12.462;2022-11-15T02:18:52;24.95;;;19.45;;
43756;SDS011;45574;41.864;12.462;2022-11-15T02:32:21;22.38;;;18.45;;
43756;SDS011;45574;41.864;12.462;2022-11-15T02:41:42;23.75;;;17.80;;
43756;SDS011;45574;41.864;12.462;2022-11-15T02:44:50;23.60;;;18.45;;
43756;SDS011;45574;41.864;12.462;2022-11-15T02:47:56;24.00;;;18.13;;
43756;SDS011;45574;41.864;12.462;2022-11-15T02:51:02;22.05;;;17.27;;
43756;SDS011;45574;41.864;12.462;2022-11-15T02:54:29;19.23;;;16.55;;
43756;SDS011;45574;41.864;12.462;2022-11-15T03:00:41;20.17;;;16.77;;
43756;SDS011;45574;41.864;12.462;2022-11-15T03:03:57;17.25;;;15.43;;
43756;SDS011;45574;41.864;12.462;2022-11-15T03:07:27;21.05;;;16.65;;
43756;SDS011;45574;41.864;12.462;2022-11-15T03:10:36;18.00;;;15.52;;
43756;SDS011;45574;41.864;12.462;2022-11-15T03:17:11;18.83;;;16.02;;
43756;SDS011;45574;41.864;12.462;2022-11-15T03:20:18;22.27;;;17.13;;
43756;SDS011;45574;41.864;12.462;2022-11-15T03:23:26;19.48;;;16.77;;
43756;SDS011;45574;41.864;12.462;2022-11-15T03:26:33;20.02;;;15.60;;
43756;SDS011;45574;41.864;12.462;2022-11-15T03:29:43;19.90;;;16.35;;
43756;SDS011;45574;41.864;12.462;2022-11-15T03:32:53;20.65;;;15.95;;
43756;SDS011;45574;41.864;12.462;2022-11-15T03:36:04;17.85;;;15.00;;
43756;SDS011;45574;41.864;12.462;2022-11-15T03:39:11;19.52;;;14.57;;
43756;SDS011;45574;41.864;12.462;2022-11-15T03:42:20;18.90;;;14.23;;
43756;SDS011;45574;41.864;12.462;2022-11-15T03:45:31;20.42;;;14.57;;
43756;SDS011;45574;41.864;12.462;2022-11-15T03:48:39;20.95;;;13.68;;
43756;SDS011;45574;41.864;12.462;2022-11-15T03:51:44;15.20;;;13.13;;
43756;SDS011;45574;41.864;12.462;2022-11-15T03:54:53;17.85;;;12.98;;
43756;SDS011;45574;41.864;12.462;2022-11-15T03:57:58;15.35;;;12.90;;
43756;SDS011;45574;41.864;12.462;2022-11-15T04:01:03;13.73;;;11.70;;
43756;SDS011;45574;41.864;12.462;2022-11-15T04:04:08;14.88;;;11.85;;
43756;SDS011;45574;41.864;12.462;2022-11-15T04:07:13;13.57;;;11.52;;
43756;SDS011;45574;41.864;12.462;2022-11-15T04:10:17;13.82;;;11.77;;
43756;SDS011;45574;41.864;12.462;2022-11-15T04:13:24;13.25;;;11.13;;
43756;SDS011;45574;41.864;12.462;2022-11-15T04:16:29;12.13;;;10.15;;
43756;SDS011;45574;41.864;12.462;2022-11-15T04:19:36;11.65;;;10.30;;
43756;SDS011;45574;41.864;12.462;2022-11-15T04:23:00;14.18;;;11.20;;
43756;SDS011;45574;41.864;12.462;2022-11-15T04:26:24;11.73;;;10.15;;
43756;SDS011;45574;41.864;12.462;2022-11-15T04:29:28;11.65;;;9.77;;
43756;SDS011;45574;41.864;12.462;2022-11-15T04:32:56;11.07;;;9.38;;
43756;SDS011;45574;41.864;12.462;2022-11-15T04:36:04;13.65;;;9.90;;
43756;SDS011;45574;41.864;12.462;2022-11-15T04:39:28;11.68;;;9.30;;
43756;SDS011;45574;41.864;12.462;2022-11-15T04:42:33;12.13;;;9.50;;
43756;SDS011;45574;41.864;12.462;2022-11-15T04:45:37;10.70;;;9.45;;
43756;SDS011;45574;41.864;12.462;2022-11-15T04:48:42;12.25;;;9.13;;
43756;SDS011;45574;41.864;12.462;2022-11-15T04:51:46;11.18;;;9.98;;
43756;SDS011;45574;41.864;12.462;2022-11-15T04:54:51;9.40;;;8.35;;
43756;SDS011;45574;41.864;12.462;2022-11-15T04:57:57;10.35;;;9.18;;
43756;SDS011;45574;41.864;12.462;2022-11-15T05:04:15;9.77;;;8.70;;
43756;SDS011;45574;41.864;12.462;2022-11-15T05:07:26;15.15;;;9.85;;
43756;SDS011;45574;41.864;12.462;2022-11-15T05:10:30;10.95;;;8.95;;
43756;SDS011;45574;41.864;12.462;2022-11-15T05:13:35;12.15;;;9.60;;
43756;SDS011;45574;41.864;12.462;2022-11-15T05:16:40;11.75;;;9.20;;
43756;SDS011;45574;41.864;12.462;2022-11-15T05:19:44;11.45;;;8.90;;
43756;SDS011;45574;41.864;12.462;2022-11-15T05:22:49;11.98;;;8.65;;
43756;SDS011;45574;41.864;12.462;2022-11-15T05:25:58;14.90;;;10.10;;
43756;SDS011;45574;41.864;12.462;2022-11-15T05:29:05;10.98;;;9.63;;
43756;SDS011;45574;41.864;12.462;2022-11-15T05:32:09;10.00;;;9.05;;
43756;SDS011;45574;41.864;12.462;2022-11-15T05:35:20;13.55;;;8.85;;
43756;SDS011;45574;41.864;12.462;2022-11-15T05:38:26;11.50;;;9.63;;
43756;SDS011;45574;41.864;12.462;2022-11-15T05:41:32;9.82;;;8.27;;
43756;SDS011;45574;41.864;12.462;2022-11-15T05:44:38;10.65;;;8.88;;
43756;SDS011;45574;41.864;12.462;2022-11-15T05:47:44;10.90;;;8.82;;
43756;SDS011;45574;41.864;12.462;2022-11-15T05:50:49;12.82;;;8.57;;
43756;SDS011;45574;41.864;12.462;2022-11-15T05:53:53;11.05;;;8.85;;
43756;SDS011;45574;41.864;12.462;2022-11-15T05:57:00;12.48;;;9.10;;
43756;SDS011;45574;41.864;12.462;2022-11-15T06:00:12;11.32;;;9.18;;
43756;SDS011;45574;41.864;12.462;2022-11-15T06:03:17;13.00;;;9.25;;
43756;SDS011;45574;41.864;12.462;2022-11-15T06:06:21;10.88;;;9.57;;
43756;SDS011;45574;41.864;12.462;2022-11-15T06:09:35;11.40;;;9.18;;
43756;SDS011;45574;41.864;12.462;2022-11-15T06:23:32;13.38;;;9.23;;
43756;SDS011;45574;41.864;12.462;2022-11-15T06:37:53;11.55;;;8.30;;
43756;SDS011;45574;41.864;12.462;2022-11-15T06:41:21;10.43;;;7.88;;
43756;SDS011;45574;41.864;12.462;2022-11-15T06:44:25;10.77;;;8.23;;
43756;SDS011;45574;41.864;12.462;2022-11-15T07:01:40;10.70;;;7.80;;
43756;SDS011;45574;41.864;12.462;2022-11-15T07:04:45;11.40;;;8.25;;
43756;SDS011;45574;41.864;12.462;2022-11-15T07:07:53;15.20;;;7.95;;
43756;SDS011;45574;41.864;12.462;2022-11-15T07:10:59;12.52;;;7.22;;
43756;SDS011;45574;41.864;12.462;2022-11-15T07:14:07;11.57;;;6.97;;
43756;SDS011;45574;41.864;12.462;2022-11-15T07:17:14;13.48;;;6.88;;
43756;SDS011;45574;41.864;12.462;2022-11-15T07:20:19;11.48;;;7.18;;
43756;SDS011;45574;41.864;12.462;2022-11-15T07:23:26;13.70;;;7.22;;
43756;SDS011;45574;41.864;12.462;2022-11-15T07:26:30;10.13;;;6.85;;
43756;SDS011;45574;41.864;12.462;2022-11-15T07:29:46;14.48;;;7.57;;
43756;SDS011;45574;41.864;12.462;2022-11-15T07:33:12;10.98;;;7.80;;
43756;SDS011;45574;41.864;12.462;2022-11-15T07:36:19;12.35;;;8.02;;
43756;SDS011;45574;41.864;12.462;2022-11-15T07:39:24;10.77;;;8.07;;
43756;SDS011;45574;41.864;12.462;2022-11-15T07:42:30;9.23;;;7.95;;
43756;SDS011;45574;41.864;12.462;2022-11-15T07:45:57;9.77;;;7.65;;
43756;SDS011;45574;41.864;12.462;2022-11-15T07:49:04;11.35;;;7.32;;
43756;SDS011;45574;41.864;12.462;2022-11-15T07:52:09;10.63;;;8.00;;
43756;SDS011;45574;41.864;12.462;2022-11-15T07:55:13;15.60;;;8.13;;
43756;SDS011;45574;41.864;12.462;2022-11-15T07:58:18;13.43;;;8.38;;
43756;SDS011;45574;41.864;12.462;2022-11-15T08:01:22;13.60;;;8.57;;
43756;SDS011;45574;41.864;12.462;2022-11-15T08:04:27;11.98;;;8.02;;
43756;SDS011;45574;41.864;12.462;2022-11-15T08:07:32;13.93;;;8.60;;
43756;SDS011;45574;41.864;12.462;2022-11-15T08:10:36;13.73;;;8.40;;
43756;SDS011;45574;41.864;12.462;2022-11-15T08:13:41;17.23;;;8.45;;
43756;SDS011;45574;41.864;12.462;2022-11-15T08:16:48;18.35;;;8.02;;
43756;SDS011;45574;41.864;12.462;2022-11-15T08:19:53;15.95;;;8.13;;
43756;SDS011;45574;41.864;12.462;2022-11-15T08:22:58;14.50;;;8.35;;
43756;SDS011;45574;41.864;12.462;2022-11-15T08:26:04;16.00;;;8.50;;
43756;SDS011;45574;41.864;12.462;2022-11-15T08:29:09;17.60;;;8.43;;
43756;SDS011;45574;41.864;12.462;2022-11-15T08:32:13;16.90;;;9.32;;
43756;SDS011;45574;41.864;12.462;2022-11-15T08:35:18;13.02;;;8.45;;
43756;SDS011;45574;41.864;12.462;2022-11-15T08:38:23;16.77;;;8.60;;
43756;SDS011;45574;41.864;12.462;2022-11-15T08:41:30;12.40;;;7.03;;
43756;SDS011;45574;41.864;12.462;2022-11-15T08:44:37;12.63;;;8.27;;
43756;SDS011;45574;41.864;12.462;2022-11-15T08:47:42;19.33;;;8.23;;
43756;SDS011;45574;41.864;12.462;2022-11-15T08:50:46;14.45;;;8.38;;
43756;SDS011;45574;41.864;12.462;2022-11-15T08:53:54;18.88;;;8.10;;
43756;SDS011;45574;41.864;12.462;2022-11-15T08:57:17;10.50;;;7.80;;
43756;SDS011;45574;41.864;12.462;2022-11-15T10:39:17;23.45;;;11.18;;
43756;SDS011;45574;41.864;12.462;2022-11-15T10:46:04;32.40;;;12.13;;
43756;SDS011;45574;41.864;12.462;2022-11-15T10:49:26;24.23;;;11.18;;
43756;SDS011;45574;41.864;12.462;2022-11-15T11:15:11;18.45;;;13.25;;
43756;SDS011;45574;41.864;12.462;2022-11-15T11:18:08;20.48;;;13.48;;
43756;SDS011;45574;41.864;12.462;2022-11-15T11:21:10;19.27;;;13.85;;
43756;SDS011;45574;41.864;12.462;2022-11-15T11:37:35;26.88;;;15.15;;
43756;SDS011;45574;41.864;12.462;2022-11-15T11:40:44;23.27;;;13.50;;
43756;SDS011;45574;41.864;12.462;2022-11-15T11:44:22;28.13;;;14.70;;
43756;SDS011;45574;41.864;12.462;2022-11-15T11:50:42;25.08;;;15.18;;
43756;SDS011;45574;41.864;12.462;2022-11-15T11:54:24;29.02;;;14.73;;
43756;SDS011;45574;41.864;12.462;2022-11-15T12:01:23;23.52;;;15.40;;
43756;SDS011;45574;41.864;12.462;2022-11-15T12:14:45;20.05;;;12.52;;
43756;SDS011;45574;41.864;12.462;2022-11-15T12:17:35;23.13;;;11.85;;
43756;SDS011;45574;41.864;12.462;2022-11-15T12:40:30;13.20;;;6.35;;
43756;SDS011;45574;41.864;12.462;2022-11-15T12:46:05;11.10;;;5.97;;
43756;SDS011;45574;41.864;12.462;2022-11-15T12:52:36;11.60;;;6.13;;
43756;SDS011;45574;41.864;12.462;2022-11-15T12:55:38;10.15;;;6.82;;
43756;SDS011;45574;41.864;12.462;2022-11-15T12:58:28;13.73;;;6.82;;
43756;SDS011;45574;41.864;12.462;2022-11-15T13:07:05;8.85;;;6.10;;
43756;SDS011;45574;41.864;12.462;2022-11-15T13:09:53;8.82;;;5.95;;
43756;SDS011;45574;41.864;12.462;2022-11-15T13:15:33;10.85;;;6.70;;
43756;SDS011;45574;41.864;12.462;2022-11-15T13:18:31;10.18;;;6.90;;
43756;SDS011;45574;41.864;12.462;2022-11-15T13:21:22;13.43;;;6.68;;
43756;SDS011;45574;41.864;12.462;2022-11-15T13:24:27;9.20;;;6.93;;
43756;SDS011;45574;41.864;12.462;2022-11-15T13:27:17;10.77;;;6.72;;
43756;SDS011;45574;41.864;12.462;2022-11-15T13:30:12;10.13;;;7.10;;
43756;SDS011;45574;41.864;12.462;2022-11-15T13:33:00;11.10;;;7.85;;
43756;SDS011;45574;41.864;12.462;2022-11-15T13:35:49;10.20;;;7.43;;
43756;SDS011;45574;41.864;12.462;2022-11-15T13:38:37;7.60;;;6.72;;
43756;SDS011;45574;41.864;12.462;2022-11-15T13:41:24;10.15;;;7.60;;
43756;SDS011;45574;41.864;12.462;2022-11-15T13:44:18;7.78;;;7.03;;
43756;SDS011;45574;41.864;12.462;2022-11-15T13:47:05;9.43;;;6.18;;
43756;SDS011;45574;41.864;12.462;2022-11-15T13:49:52;7.85;;;6.45;;
43756;SDS011;45574;41.864;12.462;2022-11-15T13:55:25;7.65;;;6.90;;
43756;SDS011;45574;41.864;12.462;2022-11-15T13:58:12;11.20;;;7.10;;
43756;SDS011;45574;41.864;12.462;2022-11-15T14:00:59;9.55;;;8.43;;
43756;SDS011;45574;41.864;12.462;2022-11-15T14:03:47;12.15;;;8.20;;
43756;SDS011;45574;41.864;12.462;2022-11-15T14:06:42;14.60;;;8.25;;
43756;SDS011;45574;41.864;12.462;2022-11-15T14:09:39;9.50;;;8.13;;
43756;SDS011;45574;41.864;12.462;2022-11-15T14:12:32;9.27;;;8.13;;
43756;SDS011;45574;41.864;12.462;2022-11-15T14:15:32;10.98;;;8.77;;
43756;SDS011;45574;41.864;12.462;2022-11-15T14:18:38;15.00;;;8.73;;
43756;SDS011;45574;41.864;12.462;2022-11-15T14:21:25;10.55;;;8.23;;
43756;SDS011;45574;41.864;12.462;2022-11-15T14:30:03;10.73;;;8.20;;
43756;SDS011;45574;41.864;12.462;2022-11-15T14:32:50;16.42;;;8.23;;
43756;SDS011;45574;41.864;12.462;2022-11-15T14:35:37;15.38;;;8.13;;
43756;SDS011;45574;41.864;12.462;2022-11-15T14:38:24;14.20;;;8.00;;
43756;SDS011;45574;41.864;12.462;2022-11-15T14:44:26;10.68;;;8.30;;
43756;SDS011;45574;41.864;12.462;2022-11-15T14:47:12;12.15;;;8.18;;
43756;SDS011;45574;41.864;12.462;2022-11-15T14:49:58;10.63;;;8.02;;
43756;SDS011;45574;41.864;12.462;2022-11-15T14:52:44;11.50;;;8.93;;
43756;SDS011;45574;41.864;12.462;2022-11-15T14:55:32;10.50;;;8.98;;
43756;SDS011;45574;41.864;12.462;2022-11-15T14:58:20;15.32;;;7.78;;
43756;SDS011;45574;41.864;12.462;2022-11-15T15:01:12;11.32;;;7.95;;
43756;SDS011;45574;41.864;12.462;2022-11-15T15:03:58;11.17;;;9.00;;
43756;SDS011;45574;41.864;12.462;2022-11-15T15:06:45;10.25;;;9.15;;
43756;SDS011;45574;41.864;12.462;2022-11-15T15:09:31;11.10;;;8.27;;
43756;SDS011;45574;41.864;12.462;2022-11-15T15:12:21;14.27;;;9.52;;
43756;SDS011;45574;41.864;12.462;2022-11-15T15:15:15;12.30;;;9.40;;
43756;SDS011;45574;41.864;12.462;2022-11-15T15:18:03;13.70;;;9.68;;
43756;SDS011;45574;41.864;12.462;2022-11-15T15:20:57;14.52;;;10.23;;
43756;SDS011;45574;41.864;12.462;2022-11-15T15:23:52;19.52;;;11.32;;
43756;SDS011;45574;41.864;12.462;2022-11-15T15:26:41;18.00;;;11.68;;
43756;SDS011;45574;41.864;12.462;2022-11-15T15:29:29;16.73;;;11.40;;
43756;SDS011;45574;41.864;12.462;2022-11-15T15:32:16;17.38;;;11.68;;
43756;SDS011;45574;41.864;12.462;2022-11-15T15:35:02;15.13;;;12.43;;
43756;SDS011;45574;41.864;12.462;2022-11-15T15:37:49;14.38;;;11.57;;
43756;SDS011;45574;41.864;12.462;2022-11-15T15:40:35;15.07;;;10.77;;
43756;SDS011;45574;41.864;12.462;2022-11-15T15:43:22;14.25;;;11.52;;
43756;SDS011;45574;41.864;12.462;2022-11-15T15:46:09;16.83;;;10.90;;
43756;SDS011;45574;41.864;12.462;2022-11-15T15:48:56;16.98;;;12.07;;
43756;SDS011;45574;41.864;12.462;2022-11-15T15:51:42;14.27;;;11.43;;
43756;SDS011;45574;41.864;12.462;2022-11-15T15:54:29;16.52;;;12.20;;
43756;SDS011;45574;41.864;12.462;2022-11-15T15:57:15;15.40;;;11.30;;
43756;SDS011;45574;41.864;12.462;2022-11-15T16:00:03;17.17;;;10.98;;
43756;SDS011;45574;41.864;12.462;2022-11-15T16:02:57;16.23;;;11.05;;
43756;SDS011;45574;41.864;12.462;2022-11-15T16:05:44;15.77;;;11.10;;
43756;SDS011;45574;41.864;12.462;2022-11-15T16:08:30;15.70;;;10.90;;
43756;SDS011;45574;41.864;12.462;2022-11-15T16:11:19;14.88;;;10.60;;
43756;SDS011;45574;41.864;12.462;2022-11-15T16:14:05;15.23;;;10.18;;
43756;SDS011;45574;41.864;12.462;2022-11-15T16:16:51;15.48;;;11.73;;
43756;SDS011;45574;41.864;12.462;2022-11-15T16:19:37;13.32;;;10.43;;
43756;SDS011;45574;41.864;12.462;2022-11-15T16:22:23;15.15;;;9.93;;
43756;SDS011;45574;41.864;12.462;2022-11-15T16:25:09;11.48;;;10.27;;
43756;SDS011;45574;41.864;12.462;2022-11-15T16:27:56;13.20;;;9.77;;
43756;SDS011;45574;41.864;12.462;2022-11-15T16:30:42;11.57;;;10.25;;
43756;SDS011;45574;41.864;12.462;2022-11-15T16:33:28;11.65;;;10.15;;
43756;SDS011;45574;41.864;12.462;2022-11-15T16:36:21;13.77;;;10.70;;
43756;SDS011;45574;41.864;12.462;2022-11-15T16:39:10;11.00;;;9.63;;
43756;SDS011;45574;41.864;12.462;2022-11-15T16:41:59;15.10;;;11.07;;
43756;SDS011;45574;41.864;12.462;2022-11-15T16:44:45;13.02;;;9.88;;
43756;SDS011;45574;41.864;12.462;2022-11-15T16:47:32;12.38;;;9.98;;
43756;SDS011;45574;41.864;12.462;2022-11-15T16:50:25;13.75;;;9.68;;
43756;SDS011;45574;41.864;12.462;2022-11-15T16:53:11;11.70;;;9.98;;
43756;SDS011;45574;41.864;12.462;2022-11-15T16:55:58;11.50;;;10.02;;
43756;SDS011;45574;41.864;12.462;2022-11-15T16:58:44;11.65;;;10.43;;
43756;SDS011;45574;41.864;12.462;2022-11-15T17:01:31;12.55;;;10.93;;
43756;SDS011;45574;41.864;12.462;2022-11-15T17:04:18;12.02;;;10.38;;
43756;SDS011;45574;41.864;12.462;2022-11-15T17:07:04;12.88;;;10.32;;
43756;SDS011;45574;41.864;12.462;2022-11-15T17:09:51;12.27;;;10.13;;
43756;SDS011;45574;41.864;12.462;2022-11-15T17:12:37;13.52;;;10.35;;
43756;SDS011;45574;41.864;12.462;2022-11-15T17:15:23;14.70;;;11.60;;
43756;SDS011;45574;41.864;12.462;2022-11-15T17:18:11;14.88;;;10.90;;
43756;SDS011;45574;41.864;12.462;2022-11-15T17:21:02;17.30;;;11.88;;
43756;SDS011;45574;41.864;12.462;2022-11-15T17:23:48;13.50;;;10.77;;
43756;SDS011;45574;41.864;12.462;2022-11-15T17:26:34;11.77;;;10.40;;
43756;SDS011;45574;41.864;12.462;2022-11-15T17:29:20;16.15;;;11.63;;
43756;SDS011;45574;41.864;12.462;2022-11-15T17:32:07;11.18;;;9.55;;
43756;SDS011;45574;41.864;12.462;2022-11-15T17:34:53;19.75;;;11.23;;
43756;SDS011;45574;41.864;12.462;2022-11-15T17:37:39;14.55;;;9.85;;
43756;SDS011;45574;41.864;12.462;2022-11-15T17:40:25;10.30;;;9.07;;
43756;SDS011;45574;41.864;12.462;2022-11-15T17:43:12;10.02;;;8.93;;
43756;SDS011;45574;41.864;12.462;2022-11-15T17:45:58;11.15;;;8.70;;
43756;SDS011;45574;41.864;12.462;2022-11-15T17:48:45;10.63;;;9.02;;
43756;SDS011;45574;41.864;12.462;2022-11-15T17:51:31;9.60;;;8.60;;
43756;SDS011;45574;41.864;12.462;2022-11-15T17:54:17;12.23;;;8.93;;
43756;SDS011;45574;41.864;12.462;2022-11-15T17:57:04;11.65;;;9.38;;
43756;SDS011;45574;41.864;12.462;2022-11-15T17:59:50;10.60;;;7.85;;
43756;SDS011;45574;41.864;12.462;2022-11-15T18:02:36;10.82;;;7.32;;
43756;SDS011;45574;41.864;12.462;2022-11-15T18:05:23;9.07;;;7.05;;
43756;SDS011;45574;41.864;12.462;2022-11-15T18:08:10;8.68;;;6.82;;
43756;SDS011;45574;41.864;12.462;2022-11-15T18:14:13;15.45;;;9.07;;
43756;SDS011;45574;41.864;12.462;2022-11-15T18:17:00;13.52;;;10.48;;
43756;SDS011;45574;41.864;12.462;2022-11-15T18:19:50;14.75;;;10.80;;
43756;SDS011;45574;41.864;12.462;2022-11-15T18:22:36;11.68;;;10.15;;
43756;SDS011;45574;41.864;12.462;2022-11-15T18:25:22;12.73;;;10.75;;
43756;SDS011;45574;41.864;12.462;2022-11-15T18:28:08;10.98;;;9.88;;
43756;SDS011;45574;41.864;12.462;2022-11-15T18:30:54;12.98;;;11.00;;
43756;SDS011;45574;41.864;12.462;2022-11-15T18:33:40;12.00;;;9.60;;
43756;SDS011;45574;41.864;12.462;2022-11-15T18:36:27;12.75;;;9.30;;
43756;SDS011;45574;41.864;12.462;2022-11-15T18:39:13;9.20;;;7.93;;
43756;SDS011;45574;41.864;12.462;2022-11-15T18:42:01;9.40;;;7.93;;
43756;SDS011;45574;41.864;12.462;2022-11-15T18:44:47;8.07;;;7.25;;
43756;SDS011;45574;41.864;12.462;2022-11-15T18:47:33;7.78;;;6.97;;
43756;SDS011;45574;41.864;12.462;2022-11-15T18:50:20;7.50;;;6.43;;
43756;SDS011;45574;41.864;12.462;2022-11-15T18:53:06;9.18;;;7.20;;
43756;SDS011;45574;41.864;12.462;2022-11-15T18:55:52;9.63;;;7.25;;
43756;SDS011;45574;41.864;12.462;2022-11-15T18:58:39;11.40;;;7.70;;
43756;SDS011;45574;41.864;12.462;2022-11-15T19:01:36;9.23;;;7.18;;
43756;SDS011;45574;41.864;12.462;2022-11-15T19:04:22;8.63;;;6.97;;
43756;SDS011;45574;41.864;12.462;2022-11-15T19:07:12;10.73;;;7.30;;
43756;SDS011;45574;41.864;12.462;2022-11-15T19:10:08;10.95;;;7.93;;
43756;SDS011;45574;41.864;12.462;2022-11-15T19:12:55;8.40;;;7.50;;
43756;SDS011;45574;41.864;12.462;2022-11-15T19:15:42;7.50;;;6.63;;
43756;SDS011;45574;41.864;12.462;2022-11-15T19:18:28;8.88;;;7.43;;
43756;SDS011;45574;41.864;12.462;2022-11-15T19:21:15;8.90;;;7.50;;
43756;SDS011;45574;41.864;12.462;2022-11-15T19:24:01;9.18;;;7.80;;
43756;SDS011;45574;41.864;12.462;2022-11-15T19:26:47;7.57;;;6.90;;
43756;SDS011;45574;41.864;12.462;2022-11-15T19:29:33;9.77;;;7.20;;
43756;SDS011;45574;41.864;12.462;2022-11-15T19:32:19;10.40;;;8.10;;
43756;SDS011;45574;41.864;12.462;2022-11-15T19:35:05;8.85;;;6.47;;
43756;SDS011;45574;41.864;12.462;2022-11-15T19:37:52;9.10;;;6.47;;
43756;SDS011;45574;41.864;12.462;2022-11-15T19:40:38;9.30;;;7.72;;
43756;SDS011;45574;41.864;12.462;2022-11-15T19:43:24;9.80;;;7.90;;
43756;SDS011;45574;41.864;12.462;2022-11-15T19:46:10;7.88;;;7.03;;
43756;SDS011;45574;41.864;12.462;2022-11-15T19:48:57;10.57;;;7.03;;
43756;SDS011;45574;41.864;12.462;2022-11-15T19:51:43;8.30;;;6.68;;
43756;SDS011;45574;41.864;12.462;2022-11-15T19:54:31;12.43;;;9.05;;
43756;SDS011;45574;41.864;12.462;2022-11-15T19:57:18;10.88;;;8.82;;
43756;SDS011;45574;41.864;12.462;2022-11-15T20:00:04;8.95;;;7.07;;
43756;SDS011;45574;41.864;12.462;2022-11-15T20:02:51;10.65;;;8.13;;
43756;SDS011;45574;41.864;12.462;2022-11-15T20:05:38;8.32;;;6.10;;
43756;SDS011;45574;41.864;12.462;2022-11-15T20:08:24;9.88;;;7.10;;
43756;SDS011;45574;41.864;12.462;2022-11-15T20:11:18;7.72;;;6.25;;
43756;SDS011;45574;41.864;12.462;2022-11-15T20:14:04;6.82;;;5.65;;
43756;SDS011;45574;41.864;12.462;2022-11-15T20:17:00;7.97;;;6.15;;
43756;SDS011;45574;41.864;12.462;2022-11-15T20:19:46;9.77;;;6.05;;
43756;SDS011;45574;41.864;12.462;2022-11-15T20:22:36;6.22;;;5.63;;
43756;SDS011;45574;41.864;12.462;2022-11-15T20:25:23;6.93;;;5.63;;
43756;SDS011;45574;41.864;12.462;2022-11-15T20:28:09;12.05;;;6.03;;
43756;SDS011;45574;41.864;12.462;2022-11-15T20:30:58;10.70;;;6.80;;
43756;SDS011;45574;41.864;12.462;2022-11-15T20:33:44;9.10;;;6.97;;
43756;SDS011;45574;41.864;12.462;2022-11-15T20:39:18;8.23;;;5.88;;
43756;SDS011;45574;41.864;12.462;2022-11-15T20:42:04;8.98;;;5.93;;
43756;SDS011;45574;41.864;12.462;2022-11-15T20:44:50;7.63;;;5.78;;
43756;SDS011;45574;41.864;12.462;2022-11-15T20:47:37;10.00;;;5.32;;
43756;SDS011;45574;41.864;12.462;2022-11-15T20:50:26;6.18;;;4.97;;
43756;SDS011;45574;41.864;12.462;2022-11-15T20:53:13;10.05;;;6.47;;
43756;SDS011;45574;41.864;12.462;2022-11-15T20:56:04;11.32;;;6.68;;
43756;SDS011;45574;41.864;12.462;2022-11-15T20:58:50;9.43;;;8.25;;
43756;SDS011;45574;41.864;12.462;2022-11-15T21:01:37;10.88;;;9.10;;
43756;SDS011;45574;41.864;12.462;2022-11-15T21:04:23;11.05;;;9.05;;
43756;SDS011;45574;41.864;12.462;2022-11-15T21:07:09;12.45;;;9.95;;
43756;SDS011;45574;41.864;12.462;2022-11-15T21:09:55;14.18;;;9.70;;
43756;SDS011;45574;41.864;12.462;2022-11-15T21:13:00;17.83;;;10.68;;
43756;SDS011;45574;41.864;12.462;2022-11-15T21:15:46;16.73;;;10.13;;
43756;SDS011;45574;41.864;12.462;2022-11-15T21:18:32;16.02;;;10.45;;
43756;SDS011;45574;41.864;12.462;2022-11-15T21:21:18;13.98;;;10.82;;
43756;SDS011;45574;41.864;12.462;2022-11-15T21:24:06;15.90;;;9.27;;
43756;SDS011;45574;41.864;12.462;2022-11-15T21:26:53;13.05;;;9.55;;
43756;SDS011;45574;41.864;12.462;2022-11-15T21:29:42;13.98;;;9.43;;
43756;SDS011;45574;41.864;12.462;2022-11-15T21:32:30;15.73;;;9.52;;
43756;SDS011;45574;41.864;12.462;2022-11-15T21:35:17;14.13;;;9.02;;
43756;SDS011;45574;41.864;12.462;2022-11-15T21:38:03;12.90;;;9.45;;
43756;SDS011;45574;41.864;12.462;2022-11-15T21:40:50;13.73;;;9.63;;
43756;SDS011;45574;41.864;12.462;2022-11-15T21:43:36;16.77;;;10.85;;
43756;SDS011;45574;41.864;12.462;2022-11-15T21:46:22;14.73;;;9.38;;
43756;SDS011;45574;41.864;12.462;2022-11-15T21:49:09;19.10;;;10.10;;